Time;durP1;ratioP1;P1;durP2;ratioP2;P2;SDS_P1;SDS_P2;PMS_P1;PMS_P2;Temp;Humidity;BMP_temperature;BMP_pressure;BME280_temperature;BME280_humidity;BME280_pressure;Samples;Min_cycle;Max_cycle;Signal;HPM_P1;HPM_P2
2023/02/27 00:01:39;;;;;;;1.95;1.30;;;;;;;;;;4993338;28;20062;-76
2023/02/27 00:04:06;;;;;;;2.72;1.40;;;;;;;;;;4980619;28;20146;-77
2023/02/27 00:06:33;;;;;;;1.40;1.30;;;;;;;;;;4997190;28;20046;-77
2023/02/27 00:09:00;;;;;;;2.85;1.23;;;;;;;;;;4983512;28;20058;-76
2023/02/27 00:11:27;;;;;;;6.03;1.45;;;;;;;;;;4996218;28;20074;-77
2023/02/27 00:13:54;;;;;;;2.03;1.40;;;;;;;;;;4979998;28;20050;-77
2023/02/27 00:16:21;;;;;;;2.78;1.63;;;;;;;;;;5004476;28;20062;-77
2023/02/27 00:18:47;;;;;;;3.72;2.47;;;;;;;;;;4976283;28;20050;-77
2023/02/27 00:21:14;;;;;;;3.65;1.70;;;;;;;;;;4960511;28;20065;-77
2023/02/27 00:23:41;;;;;;;4.90;1.70;;;;;;;;;;4992033;28;20066;-77
2023/02/27 00:26:08;;;;;;;3.15;1.52;;;;;;;;;;4975926;28;20069;-77
2023/02/27 00:28:34;;;;;;;3.08;1.90;;;;;;;;;;4975688;28;20054;-77
2023/02/27 00:31:03;;;;;;;2.22;1.63;;;;;;;;;;4976219;28;20431;-77
2023/02/27 00:33:30;;;;;;;2.05;1.58;;;;;;;;;;4960167;28;20054;-77
2023/02/27 00:35:58;;;;;;;3.25;1.73;;;;;;;;;;4991723;28;20057;-77
2023/02/27 00:38:25;;;;;;;3.55;1.58;;;;;;;;;;4975239;28;20060;-77
2023/02/27 00:40:51;;;;;;;2.70;1.70;;;;;;;;;;4959278;28;20057;-77
2023/02/27 00:43:18;;;;;;;2.95;1.70;;;;;;;;;;4975588;28;20050;-78
2023/02/27 00:45:46;;;;;;;2.95;2.10;;;;;;;;;;4975537;28;20491;-76
2023/02/27 00:48:14;;;;;;;3.17;1.50;;;;;;;;;;4991402;28;20058;-77
2023/02/27 00:50:41;;;;;;;3.28;1.92;;;;;;;;;;4975464;28;20054;-77
2023/02/27 00:53:07;;;;;;;4.15;1.70;;;;;;;;;;4959497;28;20065;-77
2023/02/27 00:55:34;;;;;;;2.28;1.70;;;;;;;;;;4991465;28;20050;-77
2023/02/27 00:58:01;;;;;;;2.92;1.63;;;;;;;;;;4991348;28;20058;-77
2023/02/27 01:00:28;;;;;;;3.08;1.83;;;;;;;;;;4959855;28;20062;-76
2023/02/27 01:02:54;;;;;;;4.30;1.77;;;;;;;;;;4975696;28;20514;-77
2023/02/27 01:05:21;;;;;;;4.13;1.60;;;;;;;;;;4959357;28;20054;-77
2023/02/27 01:07:48;;;;;;;1.83;1.35;;;;;;;;;;4959276;28;20058;-77
2023/02/27 01:10:15;;;;;;;5.65;2.83;;;;;;;;;;4955886;28;20062;-77
2023/02/27 01:12:42;;;;;;;2.08;1.88;;;;;;;;;;4972133;28;20555;-77
2023/02/27 01:15:09;;;;;;;2.58;1.52;;;;;;;;;;4975098;28;20137;-76
2023/02/27 01:17:36;;;;;;;2.97;1.70;;;;;;;;;;4958656;28;20066;-76
2023/02/27 01:20:04;;;;;;;4.80;2.15;;;;;;;;;;4970331;28;20423;-76
2023/02/27 01:22:31;;;;;;;2.97;1.77;;;;;;;;;;4971648;28;20054;-76
2023/02/27 01:24:59;;;;;;;4.63;1.77;;;;;;;;;;4970671;28;20055;-76
2023/02/27 01:27:26;;;;;;;5.22;2.50;;;;;;;;;;4940005;28;20054;-76
2023/02/27 01:29:53;;;;;;;1.65;1.50;;;;;;;;;;4956415;28;20055;-76
2023/02/27 01:32:20;;;;;;;3.45;1.85;;;;;;;;;;4970792;28;20058;-76
2023/02/27 01:34:46;;;;;;;2.42;1.88;;;;;;;;;;4982397;28;20451;-76
2023/02/27 01:37:13;;;;;;;2.20;1.40;;;;;;;;;;4975215;28;20509;-77
2023/02/27 01:39:40;;;;;;;2.42;1.80;;;;;;;;;;4975287;28;20477;-77
2023/02/27 01:42:20;;;;;;;1.88;1.48;;;;;;;;;;4975350;28;20061;-76
2023/02/27 01:45:15;;;;;;;2.05;1.63;;;;;;;;;;4974231;28;20061;-76
2023/02/27 01:47:44;;;;;;;3.05;1.83;;;;;;;;;;4974465;28;20062;-76
2023/02/27 01:50:11;;;;;;;1.90;1.70;;;;;;;;;;4990574;28;20065;-76
2023/02/27 01:52:37;;;;;;;3.50;1.70;;;;;;;;;;4990198;28;20117;-76
2023/02/27 01:55:07;;;;;;;3.00;1.65;;;;;;;;;;4957972;28;20125;-76
2023/02/27 01:57:34;;;;;;;2.42;1.80;;;;;;;;;;4958502;28;20085;-76
2023/02/27 02:00:01;;;;;;;2.13;1.73;;;;;;;;;;4974191;28;20144;-76
2023/02/27 02:02:32;;;;;;;3.50;2.05;;;;;;;;;;4958374;28;20057;-76
2023/02/27 02:04:59;;;;;;;2.90;1.92;;;;;;;;;;4958356;28;20046;-76
2023/02/27 02:07:25;;;;;;;2.80;1.90;;;;;;;;;;4957625;28;20066;-75
2023/02/27 02:09:54;;;;;;;6.05;2.20;;;;;;;;;;4954099;28;20077;-76
2023/02/27 02:12:24;;;;;;;3.38;2.20;;;;;;;;;;4939076;28;20069;-75
2023/02/27 02:14:51;;;;;;;4.43;2.55;;;;;;;;;;4966338;28;20060;-76
2023/02/27 02:18:05;;;;;;;2.83;1.80;;;;;;;;;;4958166;28;20054;-74
2023/02/27 02:21:09;;;;;;;3.00;2.13;;;;;;;;;;4973218;28;20069;-75
2023/02/27 02:23:35;;;;;;;;;;;;;;;;;;4989610;28;20058;-74
2023/02/27 02:26:29;;;;;;;4.13;2.38;;;;;;;;;;4989148;28;19941;-74
2023/02/27 02:29:29;;;;;;;2.78;2.10;;;;;;;;;;4973752;28;20062;-76
2023/02/27 02:32:14;;;;;;;5.82;2.28;;;;;;;;;;4989544;28;20155;-76
2023/02/27 02:34:57;;;;;;;4.63;2.05;;;;;;;;;;4988902;28;20065;-75
2023/02/27 02:37:53;;;;;;;3.30;1.92;;;;;;;;;;4979372;28;20046;-76
2023/02/27 02:40:45;;;;;;;5.70;2.38;;;;;;;;;;4975491;28;20062;-76
2023/02/27 02:43:37;;;;;;;3.25;2.10;;;;;;;;;;4974848;28;20065;-76
2023/02/27 02:46:26;;;;;;;3.88;1.95;;;;;;;;;;4989746;28;20487;-75
2023/02/27 02:49:03;;;;;;;3.97;2.08;;;;;;;;;;4990034;28;20054;-76
2023/02/27 02:51:36;;;;;;;4.90;1.90;;;;;;;;;;4976356;28;20068;-76
2023/02/27 02:54:13;;;;;;;3.13;2.20;;;;;;;;;;4975020;28;20065;-76
2023/02/27 02:56:49;;;;;;;3.95;2.25;;;;;;;;;;4975415;28;20069;-76
2023/02/27 02:59:22;;;;;;;5.75;2.03;;;;;;;;;;4990731;28;20062;-76
2023/02/27 03:01:55;;;;;;;5.50;2.15;;;;;;;;;;4990824;28;20522;-75
2023/02/27 03:04:52;;;;;;;4.07;2.60;;;;;;;;;;4989558;28;20085;-76
2023/02/27 03:07:31;;;;;;;3.42;2.40;;;;;;;;;;4972811;28;20050;-76
2023/02/27 03:10:16;;;;;;;4.43;2.65;;;;;;;;;;4989386;28;20153;-76
2023/02/27 03:12:46;;;;;;;3.17;2.05;;;;;;;;;;4990345;28;20116;-76
2023/02/27 03:15:18;;;;;;;6.07;2.20;;;;;;;;;;4974235;28;20050;-77
2023/02/27 03:18:01;;;;;;;2.50;2.30;;;;;;;;;;4959008;28;20058;-76
2023/02/27 03:20:31;;;;;;;2.45;1.70;;;;;;;;;;4959942;28;20062;-76
2023/02/27 03:23:00;;;;;;;4.13;2.05;;;;;;;;;;4974056;28;20240;-76
2023/02/27 03:25:27;;;;;;;3.67;2.28;;;;;;;;;;4993076;28;20061;-75
2023/02/27 03:27:56;;;;;;;3.17;2.42;;;;;;;;;;4963838;28;20058;-76
2023/02/27 03:30:25;;;;;;;2.40;2.10;;;;;;;;;;4975535;28;20434;-76
2023/02/27 03:32:59;;;;;;;3.33;1.92;;;;;;;;;;4976491;28;20100;-76
2023/02/27 03:35:31;;;;;;;5.20;2.47;;;;;;;;;;4994733;28;20058;-76
2023/02/27 03:38:03;;;;;;;3.50;2.08;;;;;;;;;;4977803;28;20061;-76
2023/02/27 03:40:53;;;;;;;4.93;2.35;;;;;;;;;;4977597;28;20507;-76
2023/02/27 03:43:40;;;;;;;3.45;2.15;;;;;;;;;;4963458;28;20054;-76
2023/02/27 03:46:12;;;;;;;3.58;2.28;;;;;;;;;;4962700;28;20593;-76
2023/02/27 03:48:43;;;;;;;5.45;2.85;;;;;;;;;;4976881;28;20487;-76
2023/02/27 03:51:12;;;;;;;3.10;2.30;;;;;;;;;;4977345;28;20058;-75
2023/02/27 03:53:51;;;;;;;3.92;2.25;;;;;;;;;;4960692;28;20046;-76
2023/02/27 03:56:21;;;;;;;3.90;2.40;;;;;;;;;;4960984;28;20057;-75
2023/02/27 03:58:48;;;;;;;3.45;2.17;;;;;;;;;;4961100;28;20050;-74
2023/02/27 04:01:16;;;;;;;2.80;2.28;;;;;;;;;;4981733;28;20054;-75
2023/02/27 04:03:47;;;;;;;5.43;2.70;;;;;;;;;;4962781;28;20062;-75
2023/02/27 04:09:06;;;;;;;3.33;2.40;;;;;;;;;;4984033;28;20058;-75
2023/02/27 04:11:44;;;;;;;2.70;2.45;;;;;;;;;;4965199;28;20060;-76
2023/02/27 04:14:38;;;;;;;4.63;2.22;;;;;;;;;;4996935;28;20065;-76
2023/02/27 04:17:22;;;;;;;3.35;2.50;;;;;;;;;;4981935;28;20050;-75
2023/02/27 04:20:04;;;;;;;3.85;2.60;;;;;;;;;;4994224;28;20054;-75
2023/02/27 04:22:35;;;;;;;3.10;2.28;;;;;;;;;;4993843;28;20058;-76
2023/02/27 04:25:53;;;;;;;4.75;2.78;;;;;;;;;;4993359;28;20054;-75
2023/02/27 04:28:38;;;;;;;5.47;3.70;;;;;;;;;;4960899;28;20062;-76
2023/02/27 04:31:46;;;;;;;4.22;3.05;;;;;;;;;;4993318;28;20105;-76
2023/02/27 04:34:30;;;;;;;3.38;2.35;;;;;;;;;;4990858;28;20419;-75
2023/02/27 04:37:00;;;;;;;5.93;2.50;;;;;;;;;;4976036;28;20495;-75
2023/02/27 04:39:33;;;;;;;4.43;2.72;;;;;;;;;;4991441;28;20057;-76
2023/02/27 04:42:04;;;;;;;2.72;2.53;;;;;;;;;;4975753;28;20066;-75
2023/02/27 04:44:32;;;;;;;5.05;2.97;;;;;;;;;;4990766;28;20065;-75
2023/02/27 04:46:59;;;;;;;5.55;2.75;;;;;;;;;;4976121;28;20384;-76
2023/02/27 04:49:43;;;;;;;4.57;2.75;;;;;;;;;;4991793;28;20050;-76
2023/02/27 04:52:17;;;;;;;5.13;2.83;;;;;;;;;;4976848;28;20510;-76
2023/02/27 04:54:53;;;;;;;4.28;2.75;;;;;;;;;;4976175;28;20057;-76
2023/02/27 04:57:23;;;;;;;4.90;2.83;;;;;;;;;;4976998;28;20385;-76
2023/02/27 04:59:52;;;;;;;6.13;2.78;;;;;;;;;;4976328;28;20065;-76
2023/02/27 05:02:28;;;;;;;4.85;2.72;;;;;;;;;;4976446;28;20076;-76
2023/02/27 05:04:57;;;;;;;4.25;2.85;;;;;;;;;;4992259;28;20138;-76
2023/02/27 05:07:26;;;;;;;3.53;2.58;;;;;;;;;;4975610;28;20054;-76
2023/02/27 05:10:04;;;;;;;5.40;3.15;;;;;;;;;;4975731;28;20288;-76
2023/02/27 05:12:54;;;;;;;4.30;3.03;;;;;;;;;;4975770;28;20058;-76
2023/02/27 05:15:32;;;;;;;5.28;3.15;;;;;;;;;;4974884;28;20066;-75
2023/02/27 05:18:02;;;;;;;6.57;3.08;;;;;;;;;;4974209;28;20144;-76
2023/02/27 05:20:47;;;;;;;5.82;2.92;;;;;;;;;;4990539;28;20050;-74
2023/02/27 05:23:43;;;;;;;3.75;2.60;;;;;;;;;;4991762;28;20069;-75
2023/02/27 05:26:17;;;;;;;7.05;2.97;;;;;;;;;;4990462;28;20061;-75
2023/02/27 05:29:06;;;;;;;4.38;2.60;;;;;;;;;;4975482;28;20058;-75
2023/02/27 05:31:39;;;;;;;5.00;2.63;;;;;;;;;;4974721;28;20449;-76
2023/02/27 05:34:10;;;;;;;4.47;3.15;;;;;;;;;;4999639;28;20081;-75
2023/02/27 05:36:57;;;;;;;8.15;2.70;;;;;;;;;;4974081;28;20403;-75
2023/02/27 05:39:26;;;;;;;4.80;2.97;;;;;;;;;;4976251;28;20498;-75
2023/02/27 05:42:00;;;;;;;4.85;3.00;;;;;;;;;;4990093;28;20054;-75
2023/02/27 05:44:32;;;;;;;3.83;3.13;;;;;;;;;;4959253;28;20072;-75
2023/02/27 05:47:26;;;;;;;4.90;3.08;;;;;;;;;;4989824;28;20514;-75
2023/02/27 05:50:20;;;;;;;5.18;2.90;;;;;;;;;;4975350;28;20073;-74
2023/02/27 05:52:47;;;;;;;8.98;3.53;;;;;;;;;;4976520;28;20057;-75
2023/02/27 05:55:25;;;;;;;6.05;3.17;;;;;;;;;;4989568;28;20427;-75
2023/02/27 05:58:00;;;;;;;5.70;3.25;;;;;;;;;;4973808;28;20054;-76
2023/02/27 06:00:32;;;;;;;5.05;2.97;;;;;;;;;;4973795;28;20062;-76
2023/02/27 06:02:59;;;;;;;5.47;3.08;;;;;;;;;;4973988;28;20117;-75
2023/02/27 06:05:28;;;;;;;5.45;3.30;;;;;;;;;;4970903;28;20054;-76
2023/02/27 06:07:55;;;;;;;6.13;3.30;;;;;;;;;;4988336;28;20058;-79
2023/02/27 06:10:22;;;;;;;4.70;3.47;;;;;;;;;;4959885;28;20262;-73
2023/02/27 06:12:48;;;;;;;4.40;3.25;;;;;;;;;;4989424;28;20050;-73
2023/02/27 06:15:17;;;;;;;5.88;3.50;;;;;;;;;;4973729;28;20058;-75
2023/02/27 06:17:44;;;;;;;4.20;3.20;;;;;;;;;;4973303;28;20050;-75
2023/02/27 06:20:11;;;;;;;5.30;3.15;;;;;;;;;;4988402;28;20146;-76
2023/02/27 06:22:38;;;;;;;4.68;3.08;;;;;;;;;;4983065;28;20068;-76
2023/02/27 06:25:06;;;;;;;4.88;3.30;;;;;;;;;;4961571;28;20424;-76
2023/02/27 06:27:33;;;;;;;7.00;3.30;;;;;;;;;;4966327;28;20055;-76
2023/02/27 06:30:00;;;;;;;6.25;3.35;;;;;;;;;;4989621;28;20177;-76
2023/02/27 06:32:26;;;;;;;4.95;3.35;;;;;;;;;;4957237;28;20065;-77
2023/02/27 06:34:53;;;;;;;4.90;3.55;;;;;;;;;;4989466;28;20047;-77
2023/02/27 06:37:20;;;;;;;6.53;3.40;;;;;;;;;;4957413;28;20047;-77
2023/02/27 06:39:47;;;;;;;4.95;3.30;;;;;;;;;;4954269;28;20062;-77
2023/02/27 06:42:14;;;;;;;6.22;3.65;;;;;;;;;;4948183;28;20050;-77
2023/02/27 06:44:41;;;;;;;5.70;3.60;;;;;;;;;;4969949;28;20507;-77
2023/02/27 06:47:08;;;;;;;6.00;3.88;;;;;;;;;;4938122;28;20507;-77
2023/02/27 06:49:35;;;;;;;7.10;3.85;;;;;;;;;;4970684;28;20051;-77
2023/02/27 06:52:02;;;;;;;4.75;3.28;;;;;;;;;;4954236;28;20794;-76
2023/02/27 06:54:29;;;;;;;4.80;3.10;;;;;;;;;;4966282;28;20050;-76
2023/02/27 06:56:56;;;;;;;4.63;3.22;;;;;;;;;;4965352;28;20054;-77
2023/02/27 06:59:22;;;;;;;6.38;3.20;;;;;;;;;;4953857;28;20059;-76
2023/02/27 07:01:49;;;;;;;5.35;3.25;;;;;;;;;;4954939;28;20147;-75
2023/02/27 07:04:16;;;;;;;4.50;3.10;;;;;;;;;;4987158;28;20088;-75
2023/02/27 07:06:43;;;;;;;5.38;3.30;;;;;;;;;;4985776;28;20055;-73
2023/02/27 07:09:36;;;;;;;4.32;3.08;;;;;;;;;;4976092;28;20051;-74
2023/02/27 07:12:03;;;;;;;;;;;;;;;;;;4993355;28;20426;-78
2023/02/27 07:14:29;;;;;;;6.07;3.00;;;;;;;;;;4993830;28;20371;-74
2023/02/27 07:16:56;;;;;;;5.72;3.22;;;;;;;;;;5009161;28;20062;-74
2023/02/27 07:19:23;;;;;;;4.75;3.10;;;;;;;;;;4976634;28;20062;-74
2023/02/27 07:21:50;;;;;;;10.40;3.60;;;;;;;;;;4992999;28;20062;-75
2023/02/27 07:24:17;;;;;;;4.55;2.80;;;;;;;;;;4984861;28;20663;-74
2023/02/27 07:26:43;;;;;;;5.95;3.10;;;;;;;;;;4975077;28;20055;-75
2023/02/27 07:29:10;;;;;;;4.07;3.38;;;;;;;;;;4975898;28;20154;-74
2023/02/27 07:31:37;;;;;;;5.97;3.50;;;;;;;;;;4959793;28;20066;-74
2023/02/27 07:34:04;;;;;;;5.20;2.92;;;;;;;;;;4990363;28;20058;-74
2023/02/27 07:36:31;;;;;;;6.03;2.95;;;;;;;;;;4991331;28;20071;-74
2023/02/27 07:38:57;;;;;;;4.82;3.05;;;;;;;;;;4975510;28;20054;-75
2023/02/27 07:41:24;;;;;;;5.47;2.92;;;;;;;;;;4991155;28;20050;-75
2023/02/27 07:43:57;;;;;;;6.40;3.25;;;;;;;;;;4965069;28;20145;-75
2023/02/27 07:46:25;;;;;;;4.75;2.58;;;;;;;;;;5005912;28;20061;-74
2023/02/27 07:48:53;;;;;;;4.53;3.03;;;;;;;;;;4991673;28;20054;-74
2023/02/27 07:51:20;;;;;;;4.50;3.15;;;;;;;;;;4991272;28;20113;-75
2023/02/27 07:53:46;;;;;;;6.72;2.75;;;;;;;;;;4974702;28;20116;-75
2023/02/27 07:56:13;;;;;;;3.78;2.90;;;;;;;;;;4990838;28;20061;-74
2023/02/27 07:58:40;;;;;;;4.78;3.05;;;;;;;;;;4991184;28;20050;-76
2023/02/27 08:01:07;;;;;;;3.80;2.88;;;;;;;;;;4977154;28;20058;-80
2023/02/27 08:03:33;;;;;;;6.63;3.08;;;;;;;;;;4993667;28;20511;-79
2023/02/27 08:06:00;;;;;;;5.55;2.90;;;;;;;;;;4965495;28;20073;-79
2023/02/27 08:08:28;;;;;;;4.97;2.65;;;;;;;;;;4980638;28;20055;-80
2023/02/27 08:10:55;;;;;;;3.65;2.92;;;;;;;;;;4976402;28;20050;-77
2023/02/27 08:13:22;;;;;;;4.07;2.90;;;;;;;;;;4976947;28;20096;-86
2023/02/27 08:16:09;;;;;;;6.22;3.30;;;;;;;;;;4979508;28;20046;-79
2023/02/27 08:18:35;;;;;;;6.15;3.47;;;;;;;;;;4992540;28;20141;-75
2023/02/27 08:21:03;;;;;;;6.80;3.20;;;;;;;;;;4974785;28;20148;-78
2023/02/27 08:23:31;;;;;;;3.88;3.00;;;;;;;;;;4990575;28;20054;-79
2023/02/27 08:25:58;;;;;;;5.07;2.78;;;;;;;;;;4994318;28;20055;-77
2023/02/27 08:28:25;;;;;;;5.30;2.60;;;;;;;;;;4979065;28;20518;-74
2023/02/27 08:30:52;;;;;;;7.25;2.83;;;;;;;;;;4990920;28;20229;-76
2023/02/27 08:33:19;;;;;;;6.00;2.63;;;;;;;;;;4992014;28;20422;-72
2023/02/27 08:35:45;;;;;;;6.93;2.70;;;;;;;;;;4975989;28;20054;-73
2023/02/27 08:38:12;;;;;;;4.82;3.13;;;;;;;;;;4992698;28;20050;-75
2023/02/27 08:40:39;;;;;;;5.70;2.88;;;;;;;;;;4975829;28;20061;-76
2023/02/27 08:43:05;;;;;;;7.53;2.53;;;;;;;;;;4960442;28;20078;-76
2023/02/27 08:45:32;;;;;;;4.38;2.90;;;;;;;;;;4976237;28;20054;-75
2023/02/27 08:47:59;;;;;;;4.32;3.42;;;;;;;;;;4991771;28;20057;-76
2023/02/27 08:50:26;;;;;;;6.45;2.88;;;;;;;;;;4973429;28;20054;-75
2023/02/27 08:52:52;;;;;;;6.97;3.08;;;;;;;;;;4972646;28;20058;-75
2023/02/27 08:55:20;;;;;;;5.82;2.80;;;;;;;;;;4984321;28;20423;-76
2023/02/27 08:57:47;;;;;;;4.40;2.83;;;;;;;;;;4993473;28;20077;-76
2023/02/27 09:00:14;;;;;;;4.35;2.67;;;;;;;;;;4964106;28;20138;-76
2023/02/27 09:02:41;;;;;;;5.75;3.35;;;;;;;;;;4964951;28;20468;-76
2023/02/27 09:05:08;;;;;;;3.05;2.38;;;;;;;;;;4974739;28;20046;-76
2023/02/27 09:07:34;;;;;;;5.90;3.28;;;;;;;;;;4979279;28;20067;-76
2023/02/27 09:10:02;;;;;;;3.70;2.20;;;;;;;;;;4961595;28;20062;-76
2023/02/27 09:12:28;;;;;;;3.25;2.03;;;;;;;;;;4964314;28;20082;-75
2023/02/27 09:14:55;;;;;;;6.18;3.08;;;;;;;;;;4975935;28;20570;-75
2023/02/27 09:17:24;;;;;;;6.45;2.65;;;;;;;;;;4988649;28;20054;-76
2023/02/27 09:19:51;;;;;;;10.48;3.25;;;;;;;;;;4995287;28;20058;-77
2023/02/27 09:22:18;;;;;;;3.65;2.13;;;;;;;;;;4962486;28;20162;-76
2023/02/27 09:24:45;;;;;;;3.47;2.53;;;;;;;;;;4965884;28;20121;-77
2023/02/27 09:27:12;;;;;;;5.70;3.17;;;;;;;;;;4947758;28;20481;-77
2023/02/27 09:29:38;;;;;;;4.63;3.00;;;;;;;;;;4963101;28;20052;-76
2023/02/27 09:32:05;;;;;;;4.57;2.25;;;;;;;;;;4978244;28;20514;-75
2023/02/27 09:34:32;;;;;;;4.82;2.47;;;;;;;;;;4997130;28;20053;-76
2023/02/27 09:36:59;;;;;;;3.63;2.20;;;;;;;;;;4960182;28;20046;-75
2023/02/27 09:39:28;;;;;;;3.15;2.22;;;;;;;;;;4991532;28;20431;-75
2023/02/27 09:41:58;;;;;;;4.57;2.38;;;;;;;;;;4991993;28;20062;-75
2023/02/27 09:44:45;;;;;;;4.28;2.17;;;;;;;;;;4988285;28;20050;-76
2023/02/27 09:47:17;;;;;;;3.80;2.15;;;;;;;;;;4975857;28;20093;-76
2023/02/27 09:50:06;;;;;;;5.07;2.17;;;;;;;;;;4996215;28;20086;-76
2023/02/27 09:52:34;;;;;;;6.03;2.50;;;;;;;;;;4977108;28;20081;-75
2023/02/27 09:55:11;;;;;;;4.47;2.45;;;;;;;;;;4952308;28;20065;-79
2023/02/27 09:58:00;;;;;;;5.18;2.25;;;;;;;;;;4959260;28;20081;-76
2023/02/27 10:00:35;;;;;;;4.00;2.22;;;;;;;;;;4961514;28;20051;-76
2023/02/27 10:03:11;;;;;;;3.33;1.50;;;;;;;;;;4963732;28;20056;-76
2023/02/27 10:06:14;;;;;;;3.17;2.00;;;;;;;;;;4984133;28;20230;-77
2023/02/27 10:08:50;;;;;;;3.08;1.90;;;;;;;;;;4964908;28;20051;-77
2023/02/27 10:11:30;;;;;;;3.40;1.90;;;;;;;;;;4986228;28;20119;-76
2023/02/27 10:14:33;;;;;;;5.95;2.25;;;;;;;;;;4965039;28;20061;-76
2023/02/27 10:17:01;;;;;;;3.85;1.98;;;;;;;;;;4975914;28;20059;-76
2023/02/27 10:19:33;;;;;;;2.00;1.60;;;;;;;;;;4956043;28;20046;-76
2023/02/27 10:22:00;;;;;;;2.17;1.60;;;;;;;;;;4968591;28;20054;-77
2023/02/27 10:24:32;;;;;;;2.78;1.73;;;;;;;;;;4973377;28;20065;-77
2023/02/27 10:27:01;;;;;;;3.08;1.75;;;;;;;;;;4973354;28;20081;-77
2023/02/27 10:29:35;;;;;;;2.83;2.08;;;;;;;;;;4956843;28;20042;-76
2023/02/27 10:32:03;;;;;;;1.92;1.55;;;;;;;;;;4980929;28;20054;-76
2023/02/27 10:34:30;;;;;;;1.95;1.70;;;;;;;;;;4981483;28;20158;-76
2023/02/27 10:37:02;;;;;;;2.63;1.73;;;;;;;;;;4950436;28;20053;-76
2023/02/27 10:39:42;;;;;;;2.70;1.80;;;;;;;;;;4951742;28;20054;-77
2023/02/27 10:42:13;;;;;;;4.70;1.85;;;;;;;;;;4988727;28;20058;-77
2023/02/27 10:44:43;;;;;;;2.88;1.60;;;;;;;;;;4968540;28;20117;-76
2023/02/27 10:47:16;;;;;;;3.78;1.70;;;;;;;;;;4965912;28;20059;-76
2023/02/27 10:49:43;;;;;;;2.30;1.52;;;;;;;;;;4980862;28;20526;-77
2023/02/27 10:52:15;;;;;;;2.97;1.77;;;;;;;;;;4951379;28;20058;-77
2023/02/27 10:54:42;;;;;;;1.98;1.45;;;;;;;;;;4949327;28;20091;-77
2023/02/27 10:57:29;;;;;;;2.05;1.70;;;;;;;;;;4991409;28;20046;-76
2023/02/27 11:00:08;;;;;;;2.67;1.52;;;;;;;;;;4989792;28;20418;-78
2023/02/27 11:02:36;;;;;;;3.42;1.60;;;;;;;;;;4990127;28;20058;-78
2023/02/27 11:05:03;;;;;;;3.05;1.50;;;;;;;;;;4997265;28;20061;-77
2023/02/27 11:07:33;;;;;;;2.20;1.25;;;;;;;;;;4947817;28;20058;-78
2023/02/27 11:10:15;;;;;;;2.72;1.20;;;;;;;;;;4944881;28;20047;-77
2023/02/27 11:13:01;;;;;;;1.73;1.40;;;;;;;;;;4953297;28;20054;-77
2023/02/27 11:15:30;;;;;;;2.85;1.35;;;;;;;;;;4968287;28;20046;-77
2023/02/27 11:18:16;;;;;;;2.38;1.40;;;;;;;;;;4963802;28;20066;-76
2023/02/27 11:20:42;;;;;;;3.08;1.38;;;;;;;;;;4980356;28;20526;-76
2023/02/27 11:23:23;;;;;;;1.90;1.23;;;;;;;;;;4946711;28;20054;-77
2023/02/27 11:25:50;;;;;;;1.30;1.05;;;;;;;;;;4947894;28;20069;-77
2023/02/27 11:28:26;;;;;;;1.90;1.50;;;;;;;;;;4954070;28;20058;-77
2023/02/27 11:31:16;;;;;;;2.80;1.75;;;;;;;;;;4966164;28;20051;-77
2023/02/27 11:34:03;;;;;;;2.92;1.52;;;;;;;;;;4986460;28;20320;-77
2023/02/27 11:36:44;;;;;;;2.83;1.75;;;;;;;;;;4966628;28;20058;-77
2023/02/27 11:39:23;;;;;;;4.30;1.30;;;;;;;;;;4990158;28;20050;-77
2023/02/27 11:41:50;;;;;;;2.17;1.30;;;;;;;;;;4994131;28;20061;-77
2023/02/27 11:44:19;;;;;;;1.70;1.30;;;;;;;;;;4965615;28;20062;-77
2023/02/27 11:47:07;;;;;;;1.73;1.10;;;;;;;;;;4961017;28;20058;-76
2023/02/27 11:49:56;;;;;;;2.75;1.33;;;;;;;;;;5000739;28;20050;-79
2023/02/27 11:52:29;;;;;;;2.15;1.40;;;;;;;;;;4985252;28;20058;-76
2023/02/27 11:54:57;;;;;;;;;;;;;;;;;;4953427;28;20068;-76
2023/02/27 11:57:34;;;;;;;2.20;1.58;;;;;;;;;;4976727;28;19932;-76
2023/02/27 12:00:05;;;;;;;4.13;1.42;;;;;;;;;;4966553;28;20050;-77
2023/02/27 12:02:55;;;;;;;2.15;1.30;;;;;;;;;;4976269;28;20058;-79
2023/02/27 12:05:31;;;;;;;2.63;1.40;;;;;;;;;;4969125;28;20054;-79
2023/02/27 12:08:06;;;;;;;1.73;1.25;;;;;;;;;;4964271;28;20057;-77
2023/02/27 12:10:54;;;;;;;3.90;1.35;;;;;;;;;;4967178;28;20073;-77
2023/02/27 12:13:40;;;;;;;4.20;1.55;;;;;;;;;;4981756;28;20050;-75
2023/02/27 12:16:26;;;;;;;2.45;1.17;;;;;;;;;;4990627;28;20054;-75
2023/02/27 12:19:09;;;;;;;2.75;1.60;;;;;;;;;;4991908;28;20416;-75
2023/02/27 12:21:43;;;;;;;3.50;1.40;;;;;;;;;;4988418;28;20094;-76
2023/02/27 12:24:20;;;;;;;7.65;1.80;;;;;;;;;;4975737;28;20458;-75
2023/02/27 12:26:49;;;;;;;2.50;1.40;;;;;;;;;;4954558;28;20054;-75
2023/02/27 12:29:31;;;;;;;2.67;1.50;;;;;;;;;;4985849;28;20046;-75
2023/02/27 12:32:06;;;;;;;4.75;1.75;;;;;;;;;;4975914;28;20442;-76
2023/02/27 12:35:10;;;;;;;3.65;1.70;;;;;;;;;;4991963;28;20062;-75
2023/02/27 12:37:36;;;;;;;4.15;1.73;;;;;;;;;;4961663;28;20050;-75
2023/02/27 12:40:08;;;;;;;1.70;1.25;;;;;;;;;;4985870;28;20062;-77
2023/02/27 12:43:10;;;;;;;2.90;1.73;;;;;;;;;;4979085;28;20055;-76
2023/02/27 12:45:52;;;;;;;4.13;1.92;;;;;;;;;;4957198;28;20082;-75
2023/02/27 12:48:46;;;;;;;3.55;1.60;;;;;;;;;;4969267;28;20384;-75
2023/02/27 12:51:18;;;;;;;3.28;1.60;;;;;;;;;;4988927;28;20050;-77
2023/02/27 12:54:33;;;;;;;2.55;1.98;;;;;;;;;;4974276;28;20054;-77
2023/02/27 12:57:12;;;;;;;4.00;1.73;;;;;;;;;;4963088;28;20419;-77
2023/02/27 13:00:09;;;;;;;2.47;1.67;;;;;;;;;;4973499;28;20060;-78
2023/02/27 13:03:11;;;;;;;3.60;2.50;;;;;;;;;;4990502;28;20409;-76
2023/02/27 13:05:47;;;;;;;3.70;1.83;;;;;;;;;;4957580;28;20055;-76
2023/02/27 13:08:51;;;;;;;5.28;1.95;;;;;;;;;;4959121;28;20232;-76
2023/02/27 13:11:22;;;;;;;3.63;1.40;;;;;;;;;;4994138;28;20062;-76
2023/02/27 13:14:19;;;;;;;2.22;1.42;;;;;;;;;;4988450;28;20050;-76
2023/02/27 13:17:00;;;;;;;5.70;1.60;;;;;;;;;;4989630;28;20065;-77
2023/02/27 13:19:31;;;;;;;3.47;1.95;;;;;;;;;;4949994;28;20047;-77
2023/02/27 13:22:07;;;;;;;3.85;1.50;;;;;;;;;;4973070;28;20061;-76
2023/02/27 13:24:34;;;;;;;4.53;1.60;;;;;;;;;;4971743;28;20236;-77
2023/02/27 13:27:07;;;;;;;2.25;1.50;;;;;;;;;;4954496;28;20057;-76
2023/02/27 13:29:37;;;;;;;4.45;1.80;;;;;;;;;;4952666;28;20046;-77
2023/02/27 13:32:10;;;;;;;3.45;1.83;;;;;;;;;;4958248;28;20050;-77
2023/02/27 13:34:40;;;;;;;2.50;1.50;;;;;;;;;;4988626;28;20054;-77
2023/02/27 13:37:07;;;;;;;3.60;1.25;;;;;;;;;;4986178;28;20054;-77
2023/02/27 13:39:55;;;;;;;2.72;1.75;;;;;;;;;;4957720;28;20667;-77
2023/02/27 13:42:24;;;;;;;2.35;1.30;;;;;;;;;;4983149;28;20247;-77
2023/02/27 13:45:03;;;;;;;2.70;1.35;;;;;;;;;;4991218;28;20133;-77
2023/02/27 13:47:30;;;;;;;5.30;1.73;;;;;;;;;;4997378;28;20069;-77
2023/02/27 13:50:20;;;;;;;3.42;1.60;;;;;;;;;;5003453;28;20137;-77
2023/02/27 13:52:47;;;;;;;2.45;1.75;;;;;;;;;;4984453;28;20077;-77
2023/02/27 13:55:34;;;;;;;3.28;1.60;;;;;;;;;;4979449;28;20057;-77
2023/02/27 13:58:00;;;;;;;2.35;1.35;;;;;;;;;;4976391;28;20054;-77
2023/02/27 14:00:32;;;;;;;6.03;1.92;;;;;;;;;;4970456;28;20047;-77
2023/02/27 14:03:18;;;;;;;3.47;2.10;;;;;;;;;;4966783;28;20058;-77
2023/02/27 14:05:46;;;;;;;1.98;1.67;;;;;;;;;;4956842;28;20062;-77
2023/02/27 14:08:48;;;;;;;1.58;1.17;;;;;;;;;;4971210;28;20507;-77
2023/02/27 14:11:18;;;;;;;3.05;1.35;;;;;;;;;;4951914;28;20054;-77
2023/02/27 14:13:45;;;;;;;2.75;1.48;;;;;;;;;;4976947;28;20061;-77
2023/02/27 14:16:32;;;;;;;2.63;1.40;;;;;;;;;;4994860;28;20070;-77
2023/02/27 14:18:59;;;;;;;2.63;1.17;;;;;;;;;;4974172;28;20050;-77
2023/02/27 14:21:50;;;;;;;2.08;1.20;;;;;;;;;;4985185;28;20059;-77
2023/02/27 14:24:39;;;;;;;2.88;1.15;;;;;;;;;;4968460;28;20269;-77
2023/02/27 14:27:37;;;;;;;2.70;1.45;;;;;;;;;;4972940;28;20093;-77
2023/02/27 14:30:08;;;;;;;2.47;1.42;;;;;;;;;;4984848;28;20043;-76
2023/02/27 14:32:35;;;;;;;2.33;1.20;;;;;;;;;;4974116;28;20073;-77
2023/02/27 14:35:04;;;;;;;1.48;1.15;;;;;;;;;;4967333;28;20065;-76
2023/02/27 14:37:30;;;;;;;2.15;1.33;;;;;;;;;;4973426;28;20054;-76
2023/02/27 14:39:57;;;;;;;3.13;1.50;;;;;;;;;;4972528;28;20238;-77
2023/02/27 14:42:46;;;;;;;1.85;1.20;;;;;;;;;;4986813;28;20062;-77
2023/02/27 14:45:21;;;;;;;1.55;1.08;;;;;;;;;;4972684;28;20054;-77
2023/02/27 14:47:50;;;;;;;1.92;1.20;;;;;;;;;;4988042;28;20082;-77
2023/02/27 14:50:32;;;;;;;4.10;1.33;;;;;;;;;;4955705;28;20415;-77
2023/02/27 14:53:02;;;;;;;3.13;0.98;;;;;;;;;;4959649;28;20506;-77
2023/02/27 14:55:31;;;;;;;2.92;1.00;;;;;;;;;;4960513;28;20061;-78
2023/02/27 14:58:15;;;;;;;2.80;1.30;;;;;;;;;;4958766;28;20141;-79
2023/02/27 15:00:49;;;;;;;3.60;1.27;;;;;;;;;;4971876;28;20054;-77
2023/02/27 15:03:20;;;;;;;3.35;1.40;;;;;;;;;;4972886;28;20149;-77
2023/02/27 15:05:48;;;;;;;2.20;1.33;;;;;;;;;;4972168;28;20073;-77
2023/02/27 15:08:30;;;;;;;3.88;1.50;;;;;;;;;;4956026;28;20062;-77
2023/02/27 15:10:57;;;;;;;3.30;1.15;;;;;;;;;;4989109;28;20050;-77
2023/02/27 15:13:32;;;;;;;1.55;1.45;;;;;;;;;;4992496;28;20054;-77
2023/02/27 15:16:17;;;;;;;1.67;1.58;;;;;;;;;;4976393;28;20418;-78
2023/02/27 15:18:49;;;;;;;1.90;1.10;;;;;;;;;;4997913;28;20057;-75
2023/02/27 15:21:19;;;;;;;2.15;1.40;;;;;;;;;;4987182;28;20846;-75
2023/02/27 15:23:56;;;;;;;5.35;1.45;;;;;;;;;;4971957;28;20406;-79
2023/02/27 15:26:28;;;;;;;2.17;1.45;;;;;;;;;;4981669;28;20058;-77